KDAG/DAG METAR and TAF weather

Enter ICAO airport designator
Station Type Date Time Source
KDAG METAR 2018/04/23 10:50 UTC NOAA

KDAG 231050Z AUTO 24015KT 10SM CLR 23/01 A2992 RMK AO2 SLP104 T02280006 $


Station Type Date Time Source
KDAG Decoded METAR 2018/04/23 10:50 UTC NOAA

BARSTOW-DAGGETT AIRPORT, CA, United States (KDAG) 34-51N 116-47W 587M
Apr 23, 2018 - 06:50 AM EDT / 2018.04.23 1050 UTC
Wind: from the WSW (240 degrees) at 17 MPH (15 KT):0
Visibility: 10 mile(s):0
Sky conditions: clear
Temperature: 73.0 F (22.8 C)
Dew Point: 33.1 F (0.6 C)
Relative Humidity: 22%
Pressure (altimeter): 29.92 in. Hg (1013 hPa)
ob: KDAG 231050Z AUTO 24015KT 10SM CLR 23/01 A2992 RMK AO2 SLP104 T02280006
cycle: 11

Station Type Date Time Source
KDAG TAF 2018/04/23 06:22 UTC NOAA

TAF KDAG 230520Z 2306/2406 26015KT P6SM SCT250
FM231300 29011KT P6SM SKC


Example: see airport list